Time;durP1;ratioP1;P1;durP2;ratioP2;P2;SDS_P1;SDS_P2;PMS_P1;PMS_P2;Temp;Humidity;BMP_temperature;BMP_pressure;BME280_temperature;BME280_humidity;BME280_pressure;Samples;Min_cycle;Max_cycle;Signal;HPM_P1;HPM_P2
2021/11/13 00:00:40;;;;;;;16.70;8.70;;;4.10;99.90;;;;;;5014842;28;20231;-70
2021/11/13 00:03:07;;;;;;;21.10;11.67;;;4.10;99.90;;;;;;5014780;28;20180;-70
2021/11/13 00:05:32;;;;;;;19.73;10.57;;;4.10;99.90;;;;;;5014623;28;20196;-70
2021/11/13 00:07:58;;;;;;;18.33;10.57;;;4.00;99.90;;;;;;5014819;28;20410;-70
2021/11/13 00:10:27;;;;;;;20.60;13.47;;;4.00;99.90;;;;;;5013829;28;20238;-69
2021/11/13 00:12:58;;;;;;;25.07;11.10;;;4.00;99.90;;;;;;5015272;28;20482;-69
2021/11/13 00:15:25;;;;;;;20.63;11.13;;;4.00;99.90;;;;;;5014518;28;20422;-69
2021/11/13 00:17:51;;;;;;;14.83;9.80;;;4.00;99.90;;;;;;5014329;28;20442;-70
2021/11/13 00:20:19;;;;;;;25.50;12.43;;;4.00;99.90;;;;;;5014360;28;20509;-70
2021/11/13 00:22:45;;;;;;;21.60;10.83;;;4.00;99.90;;;;;;5027361;28;20422;-70
2021/11/13 00:25:11;;;;;;;20.37;12.20;;;4.00;99.90;;;;;;5033864;28;20454;-70
2021/11/13 00:27:37;;;;;;;20.30;11.13;;;4.00;99.90;;;;;;5034171;28;20806;-69
2021/11/13 00:30:04;;;;;;;19.97;13.90;;;4.00;99.90;;;;;;5033829;28;20488;-70
2021/11/13 00:32:30;;;;;;;20.93;11.47;;;4.00;99.90;;;;;;5034127;28;20171;-69
2021/11/13 00:34:55;;;;;;;16.50;9.87;;;4.00;99.90;;;;;;5033924;28;20406;-70
2021/11/13 00:37:21;;;;;;;27.63;11.80;;;4.00;99.90;;;;;;5033970;28;20172;-70
2021/11/13 00:39:46;;;;;;;27.83;10.80;;;4.00;99.90;;;;;;5033755;28;20666;-70
2021/11/13 00:42:12;;;;;;;26.07;12.13;;;4.00;99.90;;;;;;5033858;28;20172;-70
2021/11/13 00:44:37;;;;;;;19.97;11.13;;;4.00;99.90;;;;;;5033636;28;20199;-70
2021/11/13 00:47:04;;;;;;;23.60;12.33;;;4.00;99.90;;;;;;5033649;28;20309;-70
2021/11/13 00:49:29;;;;;;;28.13;12.80;;;4.00;99.90;;;;;;5033619;28;20266;-70
2021/11/13 00:51:55;;;;;;;23.33;10.17;;;4.00;99.90;;;;;;5033902;28;20406;-70
2021/11/13 00:54:21;;;;;;;28.10;10.80;;;3.90;99.90;;;;;;5033447;28;20398;-70
2021/11/13 00:56:47;;;;;;;23.90;10.30;;;3.90;99.90;;;;;;5033673;28;20532;-69
2021/11/13 00:59:13;;;;;;;22.03;11.37;;;3.90;99.90;;;;;;5032325;28;20192;-70
2021/11/13 01:01:39;;;;;;;23.27;14.10;;;3.90;99.90;;;;;;5033502;28;20402;-71
2021/11/13 01:04:05;;;;;;;20.97;10.83;;;3.90;99.90;;;;;;5033356;28;20410;-70
2021/11/13 01:06:31;;;;;;;26.90;14.07;;;3.90;99.90;;;;;;5033446;28;20168;-70
2021/11/13 01:08:57;;;;;;;24.27;10.63;;;3.90;99.90;;;;;;5033235;28;20434;-71
2021/11/13 01:11:22;;;;;;;17.53;9.57;;;3.90;99.90;;;;;;5033306;28;20406;-71
2021/11/13 01:13:48;;;;;;;20.83;11.50;;;3.90;99.90;;;;;;5033259;28;20175;-70
2021/11/13 01:16:38;;;;;;;17.07;10.77;;;3.90;99.90;;;;;;5033148;28;20238;-70
2021/11/13 01:19:04;;;;;;;20.87;9.50;;;3.90;99.90;;;;;;5025947;28;20798;-69
2021/11/13 01:21:30;;;;;;;18.50;12.87;;;3.90;99.90;;;;;;5012933;28;20453;-70
2021/11/13 01:23:59;;;;;;;17.97;10.60;;;3.90;99.90;;;;;;5021557;28;20406;-69
2021/11/13 01:26:27;;;;;;;27.30;11.97;;;3.90;99.90;;;;;;5033015;28;20921;-70
2021/11/13 01:28:53;;;;;;;17.97;9.40;;;4.00;99.90;;;;;;5032911;28;20423;-71
2021/11/13 01:31:19;;;;;;;19.03;11.90;;;4.00;99.90;;;;;;5032874;28;20438;-70
2021/11/13 01:33:45;;;;;;;19.50;10.17;;;4.00;99.90;;;;;;5032422;28;20418;-70
2021/11/13 01:36:12;;;;;;;17.97;10.10;;;4.00;99.90;;;;;;5023162;28;20653;-70
2021/11/13 01:38:38;;;;;;;18.10;11.20;;;4.00;99.90;;;;;;5024272;28;20164;-71
2021/11/13 01:41:08;;;;;;;23.60;11.07;;;4.10;99.90;;;;;;5032454;28;20770;-70
2021/11/13 01:43:36;;;;;;;19.67;12.50;;;4.10;99.90;;;;;;5032135;28;20414;-72
2021/11/13 01:46:03;;;;;;;14.80;7.67;;;4.10;99.90;;;;;;5032436;28;20516;-71
2021/11/13 01:48:32;;;;;;;24.20;10.40;;;4.10;99.90;;;;;;5032449;28;20502;-70
2021/11/13 01:51:02;;;;;;;23.20;13.67;;;4.20;99.90;;;;;;5032485;28;20884;-71
2021/11/13 01:53:30;;;;;;;23.97;11.67;;;4.10;99.90;;;;;;5032339;28;20399;-70
2021/11/13 01:55:59;;;;;;;19.90;9.57;;;4.20;99.90;;;;;;5031264;28;20413;-71
2021/11/13 01:58:25;;;;;;;24.23;11.43;;;4.20;99.90;;;;;;5032115;28;20449;-70
2021/11/13 02:00:53;;;;;;;18.67;10.50;;;4.20;99.90;;;;;;5032147;28;20442;-69
2021/11/13 02:03:21;;;;;;;19.03;10.80;;;4.20;99.90;;;;;;5032292;28;20203;-69
2021/11/13 02:05:48;;;;;;;27.07;13.43;;;4.20;99.90;;;;;;5032401;28;20999;-71
2021/11/13 02:08:14;;;;;;;18.03;9.13;;;4.30;99.90;;;;;;5032282;28;20418;-72
2021/11/13 02:10:43;;;;;;;14.50;8.80;;;4.30;99.90;;;;;;5032186;28;20936;-71
2021/11/13 02:13:09;;;;;;;22.07;11.27;;;4.30;99.90;;;;;;5032464;28;20795;-70
2021/11/13 02:15:35;;;;;;;20.57;10.53;;;4.30;99.90;;;;;;5032361;28;20406;-69
2021/11/13 02:18:04;;;;;;;22.13;9.77;;;4.30;99.90;;;;;;5032160;28;20206;-69
2021/11/13 02:20:35;;;;;;;22.00;9.70;;;4.30;99.90;;;;;;5031987;28;20187;-70
2021/11/13 02:23:11;;;;;;;16.47;9.10;;;4.40;99.90;;;;;;5032078;28;20937;-70
2021/11/13 02:25:38;;;;;;;17.33;9.30;;;4.30;99.90;;;;;;5032030;28;20477;-71
2021/11/13 02:28:06;;;;;;;12.37;9.13;;;4.30;99.90;;;;;;5030780;28;20403;-70
2021/11/13 02:30:32;;;;;;;22.10;11.53;;;4.30;99.90;;;;;;5030651;28;20430;-71
2021/11/13 02:33:05;;;;;;;19.03;10.13;;;4.30;99.90;;;;;;5026001;28;20447;-71
2021/11/13 02:35:32;;;;;;;20.37;8.73;;;4.30;99.90;;;;;;5012452;28;20431;-70
2021/11/13 02:38:09;;;;;;;21.27;12.20;;;4.20;99.90;;;;;;5012156;28;20777;-70
2021/11/13 02:40:35;;;;;;;18.57;10.10;;;4.30;99.90;;;;;;5011081;28;20422;-71
2021/11/13 02:43:01;;;;;;;21.33;12.27;;;4.30;99.90;;;;;;5012165;28;20809;-70
2021/11/13 02:45:27;;;;;;;26.47;10.30;;;4.20;99.90;;;;;;5012129;28;20212;-70
2021/11/13 02:47:54;;;;;;;18.73;10.60;;;4.20;99.90;;;;;;5012056;28;20817;-70
2021/11/13 02:50:20;;;;;;;17.03;11.53;;;4.20;99.90;;;;;;5015220;28;20200;-70
2021/11/13 02:52:49;;;;;;;17.70;9.30;;;4.20;99.90;;;;;;5026297;28;20446;-70
2021/11/13 02:55:15;;;;;;;17.60;9.60;;;4.20;99.90;;;;;;5029898;28;20501;-71
2021/11/13 02:57:41;;;;;;;26.47;13.50;;;4.20;99.90;;;;;;5011875;28;20514;-71
2021/11/13 03:00:15;;;;;;;17.63;10.97;;;4.20;99.90;;;;;;5011951;28;20442;-71
2021/11/13 03:02:47;;;;;;;20.73;9.43;;;4.20;99.90;;;;;;5012434;28;20411;-70
2021/11/13 03:05:23;;;;;;;20.63;9.80;;;4.20;99.90;;;;;;5012526;28;20489;-70
2021/11/13 03:07:49;;;;;;;21.60;9.63;;;4.20;99.90;;;;;;5012279;28;20446;-70
2021/11/13 03:10:16;;;;;;;18.07;13.27;;;4.20;99.90;;;;;;5010590;28;20442;-71
2021/11/13 03:12:48;;;;;;;23.23;13.17;;;4.20;99.90;;;;;;5011962;28;20495;-70
2021/11/13 03:15:16;;;;;;;23.97;9.90;;;4.20;99.90;;;;;;5011820;28;20505;-70
2021/11/13 03:17:41;;;;;;;21.13;12.23;;;4.20;99.90;;;;;;5011748;28;20438;-71
2021/11/13 03:20:13;;;;;;;14.73;8.50;;;4.10;99.90;;;;;;5012264;28;20489;-69
2021/11/13 03:22:39;;;;;;;21.13;12.13;;;4.10;99.90;;;;;;5011967;28;20172;-71
2021/11/13 03:25:07;;;;;;;16.57;8.93;;;4.10;99.90;;;;;;5012019;28;21011;-71
2021/11/13 03:27:37;;;;;;;15.67;8.13;;;4.10;99.90;;;;;;5011643;28;20410;-70
2021/11/13 03:30:05;;;;;;;13.43;7.50;;;4.10;99.90;;;;;;5011803;28;20510;-70
2021/11/13 03:32:30;;;;;;;16.50;7.43;;;4.00;99.90;;;;;;5011986;28;20400;-71
2021/11/13 03:34:56;;;;;;;16.40;9.43;;;4.00;99.90;;;;;;5011421;28;20429;-70
2021/11/13 03:37:21;;;;;;;14.63;9.80;;;4.00;99.90;;;;;;5011787;28;20175;-70
2021/11/13 03:39:47;;;;;;;20.90;11.13;;;4.00;99.90;;;;;;5011492;28;20230;-70
2021/11/13 03:42:13;;;;;;;27.37;10.97;;;4.00;99.90;;;;;;5011641;28;20588;-70
2021/11/13 03:44:38;;;;;;;19.60;9.30;;;4.10;99.90;;;;;;5011876;28;20698;-70
2021/11/13 03:47:06;;;;;;;20.70;9.97;;;4.10;99.90;;;;;;5015078;28;20587;-69
2021/11/13 03:49:35;;;;;;;15.60;10.80;;;4.10;99.90;;;;;;5014836;28;20536;-70
2021/11/13 03:52:00;;;;;;;25.00;11.00;;;4.10;99.90;;;;;;5014962;28;20437;-70
2021/11/13 03:54:26;;;;;;;13.00;9.33;;;4.10;99.90;;;;;;5014854;28;20419;-70
2021/11/13 03:56:52;;;;;;;17.07;10.37;;;4.10;99.90;;;;;;5014952;28;20255;-70
2021/11/13 03:59:17;;;;;;;12.43;8.70;;;4.10;99.90;;;;;;5014763;28;20192;-69
2021/11/13 04:01:43;;;;;;;20.13;10.43;;;4.10;99.90;;;;;;5014836;28;20165;-71
2021/11/13 04:04:09;;;;;;;18.90;12.73;;;4.10;99.90;;;;;;5014578;28;20175;-68
2021/11/13 04:06:34;;;;;;;24.47;12.10;;;4.10;99.90;;;;;;5014506;28;20404;-70
2021/11/13 04:09:00;;;;;;;18.50;8.80;;;4.10;99.90;;;;;;5013073;28;20283;-71
2021/11/13 04:11:26;;;;;;;19.97;10.17;;;4.10;99.90;;;;;;5014565;28;20171;-69
2021/11/13 04:13:51;;;;;;;8.03;6.63;;;4.00;99.90;;;;;;5014747;28;20180;-70
2021/11/13 04:16:17;;;;;;;14.07;8.77;;;4.10;99.90;;;;;;5014391;28;20663;-69
2021/11/13 04:18:42;;;;;;;23.10;10.97;;;4.10;99.90;;;;;;5014141;28;20214;-70
2021/11/13 04:21:08;;;;;;;17.43;8.90;;;4.10;99.90;;;;;;5014078;28;20169;-68
2021/11/13 04:23:34;;;;;;;16.00;8.73;;;4.10;99.90;;;;;;5014163;28;20168;-69
2021/11/13 04:26:03;;;;;;;16.77;8.97;;;4.10;99.90;;;;;;5014349;28;20291;-69
2021/11/13 04:28:28;;;;;;;16.47;10.00;;;4.10;99.90;;;;;;5013955;28;20402;-69
2021/11/13 04:30:54;;;;;;;14.47;9.13;;;4.10;99.90;;;;;;5014128;28;20404;-68
2021/11/13 04:33:19;;;;;;;13.77;9.30;;;4.10;99.90;;;;;;5013291;28;20560;-68
2021/11/13 04:38:15;;;;;;;21.50;8.30;;;4.10;99.90;;;;;;5014234;28;20178;-68
2021/11/13 04:40:41;;;;;;;14.30;9.13;;;4.10;99.90;;;;;;5013850;28;20432;-68
2021/11/13 04:43:07;;;;;;;23.53;9.30;;;4.10;99.90;;;;;;5013970;28;20419;-68
2021/11/13 04:45:33;;;;;;;17.40;10.97;;;4.20;99.90;;;;;;5013674;28;20844;-69
2021/11/13 04:47:58;;;;;;;20.00;9.40;;;4.20;99.90;;;;;;5013718;28;20251;-69
2021/11/13 04:50:26;;;;;;;20.17;10.63;;;4.20;99.90;;;;;;5013599;28;20994;-69
2021/11/13 04:52:52;;;;;;;18.87;10.40;;;4.20;99.90;;;;;;5013653;28;20168;-69
2021/11/13 04:55:21;;;;;;;17.83;10.70;;;4.30;99.90;;;;;;5013722;28;20809;-69
2021/11/13 04:57:49;;;;;;;16.43;8.73;;;4.30;99.90;;;;;;5012998;28;20416;-68
2021/11/13 05:00:18;;;;;;;16.93;8.77;;;4.30;99.90;;;;;;5012202;28;20808;-69
2021/11/13 05:02:44;;;;;;;17.83;11.10;;;4.30;99.90;;;;;;5013480;28;20813;-69
2021/11/13 05:05:09;;;;;;;14.97;7.60;;;4.30;99.90;;;;;;5023628;28;20469;-69
2021/11/13 05:07:35;;;;;;;17.43;9.87;;;4.30;99.90;;;;;;5013267;28;20782;-68
2021/11/13 05:10:04;;;;;;;17.30;10.00;;;4.30;99.90;;;;;;5019921;28;20188;-70
2021/11/13 05:12:30;;;;;;;16.27;8.73;;;4.30;99.90;;;;;;5033304;28;20180;-70
2021/11/13 05:14:55;;;;;;;15.67;9.20;;;4.30;99.90;;;;;;5033061;28;20984;-69
2021/11/13 05:17:21;;;;;;;14.00;7.97;;;4.40;99.90;;;;;;5032886;28;20235;-68
2021/11/13 05:19:46;;;;;;;15.97;9.30;;;4.40;99.90;;;;;;5032621;28;20195;-69
2021/11/13 05:22:12;;;;;;;23.27;9.03;;;4.40;99.90;;;;;;5025766;28;20215;-68
2021/11/13 05:24:37;;;;;;;14.57;8.27;;;4.40;99.90;;;;;;5024387;28;20606;-69
2021/11/13 05:27:04;;;;;;;10.27;7.30;;;4.40;99.90;;;;;;5026213;28;20218;-69
2021/11/13 05:29:29;;;;;;;17.03;9.17;;;4.40;99.90;;;;;;5012677;28;20224;-69
2021/11/13 05:31:55;;;;;;;14.67;8.67;;;4.40;99.90;;;;;;5020337;28;20421;-69
2021/11/13 05:34:20;;;;;;;11.90;7.33;;;4.40;99.90;;;;;;5032322;28;20182;-68
2021/11/13 05:36:46;;;;;;;10.03;8.40;;;4.40;99.90;;;;;;5032825;28;20304;-68
2021/11/13 05:39:12;;;;;;;14.30;9.10;;;4.50;99.90;;;;;;5032577;28;20188;-68
2021/11/13 05:41:37;;;;;;;17.10;9.93;;;4.50;99.90;;;;;;5033101;28;20175;-68
2021/11/13 05:44:03;;;;;;;13.30;7.97;;;4.50;99.90;;;;;;5032125;28;20796;-70
2021/11/13 05:46:28;;;;;;;13.90;7.67;;;4.40;99.90;;;;;;5032081;28;20219;-68
2021/11/13 05:48:54;;;;;;;17.10;8.97;;;4.40;99.90;;;;;;5031965;28;20241;-68
2021/11/13 05:51:20;;;;;;;12.00;8.70;;;4.40;99.90;;;;;;5031967;28;20172;-69
2021/11/13 05:53:45;;;;;;;14.53;8.40;;;4.40;99.90;;;;;;5031858;28;20255;-70
2021/11/13 05:56:11;;;;;;;15.80;11.17;;;4.40;99.90;;;;;;5030495;28;20274;-70
2021/11/13 05:58:37;;;;;;;13.30;8.77;;;4.40;99.90;;;;;;5031881;28;20406;-69
2021/11/13 06:01:03;;;;;;;18.30;9.80;;;4.40;99.90;;;;;;5030317;28;20267;-69
2021/11/13 06:03:28;;;;;;;16.00;8.60;;;4.40;99.90;;;;;;5031577;28;20176;-72
2021/11/13 06:05:54;;;;;;;13.50;7.23;;;4.40;99.90;;;;;;5031714;28;20450;-69
2021/11/13 06:08:19;;;;;;;16.90;8.93;;;4.40;99.90;;;;;;5031002;28;20170;-69
2021/11/13 06:10:45;;;;;;;17.77;7.23;;;4.40;99.90;;;;;;5031451;28;20222;-69
2021/11/13 06:13:10;;;;;;;12.00;8.90;;;4.40;99.90;;;;;;5031594;28;20505;-69
2021/11/13 06:15:36;;;;;;;10.37;6.57;;;4.40;99.90;;;;;;5031377;28;20171;-70
2021/11/13 06:18:01;;;;;;;15.73;9.20;;;4.40;99.90;;;;;;5031584;28;20241;-69
2021/11/13 06:20:27;;;;;;;11.80;8.23;;;4.50;99.90;;;;;;5031667;28;20201;-69
2021/11/13 06:22:53;;;;;;;14.40;8.97;;;4.50;99.90;;;;;;5031719;28;20295;-70
2021/11/13 06:25:18;;;;;;;16.03;9.10;;;4.50;99.90;;;;;;5030094;28;20195;-69
2021/11/13 06:27:44;;;;;;;13.70;9.50;;;4.50;99.90;;;;;;5031597;28;20175;-68
2021/11/13 06:30:12;;;;;;;15.80;8.53;;;4.50;99.90;;;;;;5031854;28;20183;-69
2021/11/13 06:32:39;;;;;;;13.50;7.77;;;4.50;99.90;;;;;;5031642;28;20413;-68
2021/11/13 06:35:07;;;;;;;13.63;6.60;;;4.50;99.90;;;;;;5031467;28;20426;-69
2021/11/13 06:37:33;;;;;;;21.07;9.47;;;4.60;99.90;;;;;;5031467;28;20464;-70
2021/11/13 06:39:59;;;;;;;19.53;10.30;;;4.60;99.90;;;;;;5031203;28;20517;-69
2021/11/13 06:42:24;;;;;;;12.00;8.57;;;4.60;99.90;;;;;;5031312;28;20402;-69
2021/11/13 06:44:50;;;;;;;16.50;9.07;;;4.60;99.90;;;;;;5031005;28;20286;-69
2021/11/13 06:47:15;;;;;;;14.43;8.30;;;4.60;99.90;;;;;;5031350;28;20182;-69
2021/11/13 06:49:41;;;;;;;15.73;8.63;;;4.60;99.90;;;;;;5031192;28;20274;-68
2021/11/13 06:52:07;;;;;;;19.17;8.50;;;4.60;99.90;;;;;;5031246;28;20171;-69
2021/11/13 06:54:32;;;;;;;20.57;9.60;;;4.60;99.90;;;;;;5031147;28;20417;-68
2021/11/13 06:56:59;;;;;;;15.40;8.77;;;4.70;99.90;;;;;;5031490;28;20167;-69
2021/11/13 06:59:24;;;;;;;18.73;8.97;;;4.70;99.90;;;;;;5031532;28;20238;-68
2021/11/13 07:01:50;;;;;;;18.07;9.27;;;4.60;99.90;;;;;;5031504;28;20406;-69
2021/11/13 07:04:15;;;;;;;14.00;5.93;;;4.70;99.90;;;;;;5031225;28;20639;-69
2021/11/13 07:06:41;;;;;;;13.57;7.00;;;4.70;99.90;;;;;;5031562;28;20182;-68
2021/11/13 07:09:06;;;;;;;9.53;6.77;;;4.70;99.90;;;;;;5031527;28;20662;-68
2021/11/13 07:11:32;;;;;;;13.03;8.40;;;4.70;99.90;;;;;;5031611;28;20172;-69
2021/11/13 07:13:57;;;;;;;15.10;7.97;;;4.70;99.90;;;;;;5031574;28;20171;-70
2021/11/13 07:16:23;;;;;;;20.10;9.43;;;4.70;99.90;;;;;;5031207;28;20635;-68
2021/11/13 07:18:48;;;;;;;11.80;7.40;;;4.70;99.90;;;;;;5030672;28;20211;-67
2021/11/13 07:21:14;;;;;;;10.00;7.70;;;4.70;99.90;;;;;;5020312;28;20183;-68
2021/11/13 07:23:40;;;;;;;14.90;8.67;;;4.70;99.90;;;;;;5034744;28;20346;-69
2021/11/13 07:26:07;;;;;;;12.50;7.30;;;4.70;99.90;;;;;;5027031;28;20462;-69
2021/11/13 07:28:38;;;;;;;11.40;8.20;;;4.80;99.90;;;;;;5014788;28;20171;-68
2021/11/13 07:31:05;;;;;;;9.10;6.97;;;4.90;99.90;;;;;;5014877;28;20407;-69
2021/11/13 07:33:30;;;;;;;16.37;6.73;;;4.90;99.90;;;;;;5014724;28;20472;-68
2021/11/13 07:35:56;;;;;;;15.10;7.97;;;5.00;99.90;;;;;;5014652;28;20407;-70
2021/11/13 07:38:22;;;;;;;11.60;7.37;;;5.00;99.90;;;;;;5015691;28;20627;-68
2021/11/13 07:40:47;;;;;;;14.40;7.77;;;5.00;99.90;;;;;;5034314;28;20246;-68
2021/11/13 07:43:13;;;;;;;10.30;6.93;;;5.00;99.90;;;;;;5034277;28;20171;-68
2021/11/13 07:45:38;;;;;;;11.93;7.20;;;5.00;99.90;;;;;;5034249;28;20199;-69
2021/11/13 07:48:07;;;;;;;12.13;6.07;;;5.10;99.90;;;;;;5034351;28;20735;-68
2021/11/13 07:50:35;;;;;;;10.40;8.17;;;5.20;99.90;;;;;;5034659;28;20208;-69
2021/11/13 07:53:01;;;;;;;14.03;7.03;;;5.20;99.90;;;;;;5033516;28;20426;-67
2021/11/13 07:55:26;;;;;;;9.47;6.07;;;5.20;99.90;;;;;;5034676;28;20414;-68
2021/11/13 07:57:52;;;;;;;13.00;7.17;;;5.30;99.90;;;;;;5034626;28;20410;-68
2021/11/13 08:00:19;;;;;;;11.13;7.27;;;5.30;99.90;;;;;;5034313;28;20238;-67
2021/11/13 08:02:45;;;;;;;12.63;7.03;;;5.30;99.90;;;;;;5034886;28;20172;-69
2021/11/13 08:05:15;;;;;;;8.30;4.83;;;5.30;99.90;;;;;;5034532;28;20949;-68
2021/11/13 08:07:41;;;;;;;11.80;6.10;;;5.30;99.90;;;;;;5033650;28;20539;-70
2021/11/13 08:10:08;;;;;;;8.47;6.80;;;5.40;99.90;;;;;;5034322;28;20850;-71
2021/11/13 08:12:34;;;;;;;14.20;8.10;;;5.40;99.90;;;;;;5034649;28;20790;-69
2021/11/13 08:14:59;;;;;;;8.43;4.90;;;5.40;99.90;;;;;;5034401;28;20402;-70
2021/11/13 08:17:25;;;;;;;14.63;8.17;;;5.40;99.90;;;;;;5034212;28;20214;-68
2021/11/13 08:19:50;;;;;;;13.20;8.27;;;5.50;99.90;;;;;;5034125;28;20226;-68
2021/11/13 08:22:16;;;;;;;14.03;6.50;;;5.60;99.90;;;;;;5034250;28;20168;-69
2021/11/13 08:24:42;;;;;;;10.53;6.10;;;5.60;99.90;;;;;;5034089;28;20660;-70
2021/11/13 08:27:09;;;;;;;19.00;8.20;;;5.60;99.90;;;;;;5034113;28;20167;-69
2021/11/13 08:29:35;;;;;;;14.17;9.33;;;5.50;99.90;;;;;;5033975;28;20859;-67
2021/11/13 08:32:00;;;;;;;12.63;6.10;;;5.50;99.90;;;;;;5033194;28;20433;-68
2021/11/13 08:34:26;;;;;;;13.10;6.90;;;5.60;99.90;;;;;;5033895;28;20410;-68
2021/11/13 08:36:52;;;;;;;11.40;5.80;;;5.60;99.90;;;;;;5034002;28;20171;-69
2021/11/13 08:39:17;;;;;;;9.10;6.43;;;5.70;99.90;;;;;;5033678;28;20193;-68
2021/11/13 08:41:43;;;;;;;8.77;5.13;;;5.70;99.90;;;;;;5033605;28;20649;-68
2021/11/13 08:44:09;;;;;;;12.00;8.07;;;5.80;99.90;;;;;;5033614;28;20189;-69
2021/11/13 08:46:35;;;;;;;8.80;5.37;;;5.80;99.90;;;;;;5033740;28;20195;-68
2021/11/13 08:49:02;;;;;;;13.73;7.23;;;5.70;99.90;;;;;;5033422;28;20511;-68
2021/11/13 08:51:27;;;;;;;9.93;5.10;;;5.70;99.90;;;;;;5033646;28;20402;-67
2021/11/13 08:53:54;;;;;;;9.40;6.00;;;5.80;99.90;;;;;;5033391;28;20521;-69
2021/11/13 08:56:25;;;;;;;9.80;6.50;;;5.80;99.90;;;;;;5033662;28;20258;-70
2021/11/13 08:58:55;;;;;;;10.33;5.60;;;5.90;99.90;;;;;;5033412;28;20426;-70
2021/11/13 09:01:23;;;;;;;12.23;6.73;;;5.90;99.90;;;;;;5033427;28;20425;-70
2021/11/13 09:03:51;;;;;;;13.37;7.27;;;6.00;99.90;;;;;;5032176;28;20422;-68
2021/11/13 09:06:21;;;;;;;10.30;6.00;;;6.00;99.90;;;;;;5032991;28;20457;-69
2021/11/13 09:08:48;;;;;;;10.77;7.50;;;6.00;99.90;;;;;;5034031;28;20421;-70
2021/11/13 09:11:18;;;;;;;8.07;5.50;;;6.00;99.90;;;;;;5033857;28;20399;-70
2021/11/13 09:13:43;;;;;;;13.33;7.70;;;6.10;99.90;;;;;;5033430;28;20449;-70
2021/11/13 09:16:10;;;;;;;10.63;6.30;;;6.00;99.90;;;;;;5033283;28;20410;-70
2021/11/13 09:18:38;;;;;;;8.63;7.00;;;6.00;99.90;;;;;;5033111;28;20195;-68
2021/11/13 09:21:04;;;;;;;13.83;7.10;;;6.00;99.90;;;;;;5032998;28;20442;-68
2021/11/13 09:23:30;;;;;;;12.20;7.63;;;6.10;99.90;;;;;;5032963;28;20421;-70
2021/11/13 09:25:56;;;;;;;14.17;7.77;;;6.20;99.90;;;;;;5032990;28;20454;-71
2021/11/13 09:28:21;;;;;;;15.23;8.27;;;6.10;99.90;;;;;;5033297;28;20171;-71
2021/11/13 09:30:47;;;;;;;12.90;7.00;;;6.10;99.90;;;;;;5033017;28;20176;-69
2021/11/13 09:33:13;;;;;;;9.13;6.33;;;6.20;99.90;;;;;;5032910;28;20202;-69
2021/11/13 09:35:41;;;;;;;10.17;7.50;;;6.50;99.90;;;;;;5032790;28;20194;-68
2021/11/13 09:38:08;;;;;;;12.73;6.87;;;6.40;99.90;;;;;;5032901;28;20481;-67
2021/11/13 09:40:34;;;;;;;14.10;6.80;;;6.40;99.90;;;;;;5032598;28;20895;-70
2021/11/13 09:43:02;;;;;;;10.60;7.10;;;6.50;99.90;;;;;;5032595;28;20501;-68
2021/11/13 09:45:29;;;;;;;8.97;6.03;;;6.50;99.90;;;;;;5028463;28;20707;-71
2021/11/13 09:47:56;;;;;;;8.03;6.33;;;6.60;99.90;;;;;;5019240;28;20430;-71
2021/11/13 09:50:27;;;;;;;13.57;6.90;;;6.50;99.90;;;;;;5032486;28;20414;-70
2021/11/13 09:52:53;;;;;;;13.33;6.47;;;6.50;99.90;;;;;;5032713;28;20390;-69
2021/11/13 09:55:21;;;;;;;15.13;7.30;;;6.70;99.90;;;;;;5032287;28;20985;-69
2021/11/13 09:57:48;;;;;;;11.13;5.50;;;6.60;99.90;;;;;;5032485;28;20414;-69
2021/11/13 10:00:21;;;;;;;16.23;8.07;;;6.60;99.90;;;;;;5032265;28;20585;-70
2021/11/13 10:02:46;;;;;;;12.80;6.70;;;6.60;99.90;;;;;;5032192;28;20403;-70
2021/11/13 10:05:12;;;;;;;11.23;6.50;;;6.70;99.90;;;;;;5028167;28;20461;-67
2021/11/13 10:07:38;;;;;;;27.73;7.10;;;6.80;99.90;;;;;;5029361;28;20178;-71
2021/11/13 10:10:07;;;;;;;15.30;6.57;;;6.90;99.90;;;;;;5031825;28;20184;-68
2021/11/13 10:12:37;;;;;;;12.80;4.83;;;7.00;99.90;;;;;;5031930;28;20464;-69
2021/11/13 10:15:34;;;;;;;9.37;4.93;;;7.00;99.90;;;;;;5027146;28;20926;-71
2021/11/13 10:18:19;;;;;;;9.93;6.90;;;7.00;99.90;;;;;;5028296;28;20484;-68
2021/11/13 10:20:53;;;;;;;10.03;6.30;;;7.10;99.90;;;;;;5031819;28;20521;-69
2021/11/13 10:23:26;;;;;;;12.70;6.97;;;7.10;99.90;;;;;;5026950;28;20457;-68
2021/11/13 10:25:59;;;;;;;13.03;6.50;;;7.10;99.90;;;;;;5027934;28;20551;-69
2021/11/13 10:28:26;;;;;;;11.53;6.00;;;7.10;99.90;;;;;;5028065;28;20921;-70
2021/11/13 10:31:10;;;;;;;11.73;6.23;;;7.00;99.90;;;;;;5012086;28;20450;-69
2021/11/13 10:33:36;;;;;;;16.63;6.30;;;7.00;99.90;;;;;;5025178;28;20406;-68
2021/11/13 10:36:04;;;;;;;13.27;6.27;;;6.90;99.90;;;;;;5031824;28;20423;-69
2021/11/13 10:38:30;;;;;;;11.43;5.50;;;6.90;99.90;;;;;;5031978;28;20440;-69
2021/11/13 10:41:02;;;;;;;10.97;7.07;;;7.00;99.90;;;;;;5030926;28;20497;-70
2021/11/13 10:43:42;;;;;;;10.33;5.70;;;7.00;99.90;;;;;;5031570;28;20271;-69
2021/11/13 10:46:14;;;;;;;9.77;5.93;;;7.10;99.90;;;;;;5031862;28;20454;-74
2021/11/13 10:48:43;;;;;;;6.27;5.63;;;7.20;99.90;;;;;;5028485;28;20481;-69
2021/11/13 10:51:18;;;;;;;8.03;5.03;;;7.20;99.90;;;;;;5023445;28;20404;-69
2021/11/13 10:53:45;;;;;;;11.43;6.00;;;7.40;99.90;;;;;;5023758;28;20409;-69
2021/11/13 10:56:18;;;;;;;9.20;5.10;;;7.50;99.90;;;;;;5034844;28;20403;-69
2021/11/13 10:58:53;;;;;;;11.40;7.13;;;7.50;99.90;;;;;;5017752;28;20435;-70
2021/11/13 11:01:28;;;;;;;15.83;7.00;;;7.40;99.90;;;;;;5016052;28;20438;-69
2021/11/13 11:04:09;;;;;;;11.20;5.33;;;7.60;99.90;;;;;;5016310;28;20414;-69
2021/11/13 11:06:38;;;;;;;8.20;5.10;;;7.70;99.90;;;;;;5028186;28;20476;-69
2021/11/13 11:09:23;;;;;;;13.77;6.53;;;7.90;99.90;;;;;;5035052;28;20468;-69
2021/11/13 11:11:52;;;;;;;12.47;5.80;;;7.70;99.90;;;;;;5035777;28;20555;-73
2021/11/13 11:14:21;;;;;;;10.13;5.07;;;7.70;99.90;;;;;;5036099;28;20402;-70
2021/11/13 11:16:51;;;;;;;7.30;4.90;;;8.10;99.90;;;;;;5035912;28;20971;-74
2021/11/13 11:19:19;;;;;;;8.00;5.20;;;8.10;99.90;;;;;;5016972;28;20527;-71
2021/11/13 11:22:12;;;;;;;8.93;5.80;;;8.20;99.90;;;;;;5015599;28;20415;-70
2021/11/13 11:24:51;;;;;;;8.47;5.33;;;8.10;99.90;;;;;;5026834;28;20469;-71
2021/11/13 11:27:26;;;;;;;14.70;8.73;;;8.40;99.90;;;;;;5035136;28;20405;-68
2021/11/13 11:30:11;;;;;;;12.43;6.13;;;8.40;99.90;;;;;;5035083;28;20426;-68
2021/11/13 11:32:46;;;;;;;6.90;5.80;;;8.50;99.90;;;;;;5035243;28;20475;-69
2021/11/13 11:35:20;;;;;;;12.53;6.50;;;8.30;99.90;;;;;;5035062;28;20471;-69
2021/11/13 11:37:49;;;;;;;10.10;5.23;;;8.20;99.90;;;;;;5035251;28;20415;-70
2021/11/13 11:40:18;;;;;;;12.30;6.10;;;8.20;99.90;;;;;;5034981;28;20437;-69
2021/11/13 11:42:45;;;;;;;7.80;4.70;;;8.20;99.90;;;;;;5034818;28;20437;-69
2021/11/13 11:45:14;;;;;;;9.63;5.33;;;8.30;99.90;;;;;;5034755;28;20461;-69
2021/11/13 11:47:42;;;;;;;9.97;5.80;;;8.40;99.90;;;;;;5035000;28;20422;-74
2021/11/13 11:50:11;;;;;;;10.43;5.03;;;8.40;99.90;;;;;;5034452;28;20423;-69
2021/11/13 11:52:40;;;;;;;10.23;5.93;;;8.30;99.90;;;;;;5034811;28;20412;-69
2021/11/13 11:55:07;;;;;;;10.10;5.47;;;8.20;99.90;;;;;;5032701;28;20450;-68
2021/11/13 11:57:37;;;;;;;8.83;6.10;;;8.30;99.90;;;;;;5034651;28;20874;-69
2021/11/13 12:00:13;;;;;;;8.63;5.27;;;8.30;99.90;;;;;;5034649;28;20849;-69
2021/11/13 12:02:44;;;;;;;10.03;6.90;;;8.30;99.90;;;;;;5034830;28;20416;-69
2021/11/13 12:05:13;;;;;;;11.60;5.00;;;8.30;99.90;;;;;;5034480;28;20442;-71
2021/11/13 12:07:41;;;;;;;8.87;4.80;;;8.40;99.90;;;;;;5026474;28;21096;-69
2021/11/13 12:10:20;;;;;;;8.07;5.00;;;8.40;99.90;;;;;;5014459;28;20972;-69
2021/11/13 12:13:06;;;;;;;8.10;4.60;;;8.40;99.90;;;;;;5014717;28;20396;-69
2021/11/13 12:15:43;;;;;;;10.07;6.00;;;8.40;99.90;;;;;;5014798;28;20438;-69
2021/11/13 12:18:21;;;;;;;12.83;4.70;;;8.30;99.90;;;;;;5014664;28;20433;-70
2021/11/13 12:20:51;;;;;;;9.80;5.10;;;8.40;99.90;;;;;;5014670;28;20514;-70
2021/11/13 12:23:30;;;;;;;8.50;4.90;;;8.30;99.90;;;;;;5017389;28;20395;-69
2021/11/13 12:25:57;;;;;;;9.57;4.70;;;8.40;99.90;;;;;;5034226;28;20453;-74
2021/11/13 12:28:24;;;;;;;11.33;4.37;;;8.60;99.90;;;;;;5033538;28;20414;-70
2021/11/13 12:31:04;;;;;;;12.60;4.80;;;8.60;99.90;;;;;;5034396;28;20515;-70
2021/11/13 12:33:30;;;;;;;8.83;5.47;;;8.60;99.90;;;;;;5034048;28;20405;-70
2021/11/13 12:36:02;;;;;;;11.47;5.60;;;8.40;99.90;;;;;;5034634;28;20398;-70
2021/11/13 12:38:30;;;;;;;5.43;3.97;;;8.50;99.90;;;;;;5034594;28;20171;-70
2021/11/13 12:41:17;;;;;;;9.50;4.70;;;8.60;99.90;;;;;;5034315;28;20414;-69
2021/11/13 12:43:52;;;;;;;10.00;4.97;;;8.60;99.90;;;;;;5029953;28;20416;-71
2021/11/13 12:46:39;;;;;;;8.07;5.80;;;8.80;99.90;;;;;;5033712;28;20458;-69
2021/11/13 12:49:23;;;;;;;10.03;7.43;;;8.90;99.90;;;;;;5034444;28;20426;-69
2021/11/13 12:51:51;;;;;;;10.50;4.73;;;8.80;99.90;;;;;;5033978;28;20397;-68